sensor_id;sensor_type;location;lat;lon;timestamp;pressure;altitude;pressure_sealevel;temperature;humidity
65997;BME280;52765;52.258;21.052;2023-12-22T00:01:53;96922.97;;;4.57;100.00
65997;BME280;52765;52.258;21.052;2023-12-22T00:04:19;96913.56;;;4.48;100.00
65997;BME280;52765;52.258;21.052;2023-12-22T00:06:44;96922.75;;;4.39;100.00
65997;BME280;52765;52.258;21.052;2023-12-22T00:09:11;96902.88;;;4.41;100.00
65997;BME280;52765;52.258;21.052;2023-12-22T00:11:36;96919.88;;;4.40;100.00
65997;BME280;52765;52.258;21.052;2023-12-22T00:14:02;96914.75;;;4.39;100.00
65997;BME280;52765;52.258;21.052;2023-12-22T00:16:28;96920.50;;;4.42;100.00
65997;BME280;52765;52.258;21.052;2023-12-22T00:18:53;96905.13;;;4.44;100.00
65997;BME280;52765;52.258;21.052;2023-12-22T00:21:19;96902.88;;;4.48;100.00
65997;BME280;52765;52.258;21.052;2023-12-22T00:23:45;96908.00;;;4.43;100.00
65997;BME280;52765;52.258;21.052;2023-12-22T00:26:10;96898.16;;;4.43;100.00
65997;BME280;52765;52.258;21.052;2023-12-22T00:28:35;96938.56;;;4.47;100.00
65997;BME280;52765;52.258;21.052;2023-12-22T00:31:00;96906.75;;;4.45;100.00
65997;BME280;52765;52.258;21.052;2023-12-22T00:33:26;96906.16;;;4.50;100.00
65997;BME280;52765;52.258;21.052;2023-12-22T00:35:51;96924.63;;;4.52;100.00
65997;BME280;52765;52.258;21.052;2023-12-22T00:38:17;96934.44;;;4.51;100.00
65997;BME280;52765;52.258;21.052;2023-12-22T00:40:42;96950.88;;;4.48;100.00
65997;BME280;52765;52.258;21.052;2023-12-22T00:43:12;96941.41;;;4.45;100.00
65997;BME280;52765;52.258;21.052;2023-12-22T00:45:40;96942.66;;;4.43;100.00
65997;BME280;52765;52.258;21.052;2023-12-22T00:48:06;96968.47;;;4.42;100.00
65997;BME280;52765;52.258;21.052;2023-12-22T00:50:31;96961.31;;;4.43;100.00
65997;BME280;52765;52.258;21.052;2023-12-22T00:52:56;96970.50;;;4.40;100.00
65997;BME280;52765;52.258;21.052;2023-12-22T00:55:22;96954.91;;;4.37;100.00
65997;BME280;52765;52.258;21.052;2023-12-22T00:57:47;96979.72;;;4.38;100.00
65997;BME280;52765;52.258;21.052;2023-12-22T01:00:12;96965.16;;;4.34;100.00
65997;BME280;52765;52.258;21.052;2023-12-22T01:02:38;96971.31;;;4.34;100.00
65997;BME280;52765;52.258;21.052;2023-12-22T01:05:04;96962.50;;;4.34;100.00
65997;BME280;52765;52.258;21.052;2023-12-22T01:07:29;96967.00;;;4.26;100.00
65997;BME280;52765;52.258;21.052;2023-12-22T01:09:55;96962.09;;;4.30;100.00
65997;BME280;52765;52.258;21.052;2023-12-22T01:12:26;96968.00;;;4.25;100.00
65997;BME280;52765;52.258;21.052;2023-12-22T01:14:51;96974.16;;;4.26;100.00
65997;BME280;52765;52.258;21.052;2023-12-22T01:17:17;96981.31;;;4.25;100.00
65997;BME280;52765;52.258;21.052;2023-12-22T01:19:42;96948.94;;;4.22;100.00
65997;BME280;52765;52.258;21.052;2023-12-22T01:22:08;96962.66;;;4.19;100.00
65997;BME280;52765;52.258;21.052;2023-12-22T01:24:33;96959.38;;;4.17;100.00
65997;BME280;52765;52.258;21.052;2023-12-22T01:26:58;96946.25;;;4.15;100.00
65997;BME280;52765;52.258;21.052;2023-12-22T01:29:24;96954.81;;;4.11;100.00
65997;BME280;52765;52.258;21.052;2023-12-22T01:31:49;96939.66;;;4.11;100.00
65997;BME280;52765;52.258;21.052;2023-12-22T01:34:15;96945.81;;;4.12;100.00
65997;BME280;52765;52.258;21.052;2023-12-22T01:36:40;96933.31;;;4.12;98.92
65997;BME280;52765;52.258;21.052;2023-12-22T01:39:05;96933.13;;;4.14;99.34
65997;BME280;52765;52.258;21.052;2023-12-22T01:41:31;96938.84;;;4.11;98.16
65997;BME280;52765;52.258;21.052;2023-12-22T01:43:59;96940.47;;;4.05;98.76
65997;BME280;52765;52.258;21.052;2023-12-22T01:46:24;96945.81;;;4.05;98.61
65997;BME280;52765;52.258;21.052;2023-12-22T01:48:50;96931.25;;;4.07;97.53
65997;BME280;52765;52.258;21.052;2023-12-22T01:51:19;96941.13;;;4.14;97.60
65997;BME280;52765;52.258;21.052;2023-12-22T01:53:45;96948.28;;;4.13;97.70
65997;BME280;52765;52.258;21.052;2023-12-22T01:56:10;96949.91;;;4.14;97.53
65997;BME280;52765;52.258;21.052;2023-12-22T01:58:36;96949.72;;;4.16;97.47
65997;BME280;52765;52.258;21.052;2023-12-22T02:01:02;96946.25;;;4.15;97.52
65997;BME280;52765;52.258;21.052;2023-12-22T02:03:28;96949.09;;;4.14;97.85
65997;BME280;52765;52.258;21.052;2023-12-22T02:05:53;96941.13;;;4.14;97.65
65997;BME280;52765;52.258;21.052;2023-12-22T02:08:19;96941.50;;;4.11;98.53
65997;BME280;52765;52.258;21.052;2023-12-22T02:10:46;96941.31;;;4.12;98.45
65997;BME280;52765;52.258;21.052;2023-12-22T02:13:12;96925.72;;;4.09;98.13
65997;BME280;52765;52.258;21.052;2023-12-22T02:15:37;96936.94;;;3.98;97.47
65997;BME280;52765;52.258;21.052;2023-12-22T02:18:10;96923.22;;;4.01;97.71
65997;BME280;52765;52.258;21.052;2023-12-22T02:20:35;96939.59;;;3.98;97.39
65997;BME280;52765;52.258;21.052;2023-12-22T02:23:04;96935.94;;;3.99;96.82
65997;BME280;52765;52.258;21.052;2023-12-22T02:25:32;96940.44;;;3.98;97.37
65997;BME280;52765;52.258;21.052;2023-12-22T02:27:59;96954.19;;;4.02;97.24
65997;BME280;52765;52.258;21.052;2023-12-22T02:30:31;96946.38;;;4.00;96.81
65997;BME280;52765;52.258;21.052;2023-12-22T02:33:06;96932.47;;;4.05;96.90
65997;BME280;52765;52.258;21.052;2023-12-22T02:35:41;96932.72;;;4.10;96.60
65997;BME280;52765;52.258;21.052;2023-12-22T02:38:07;96947.66;;;4.11;96.48
65997;BME280;52765;52.258;21.052;2023-12-22T02:40:32;96926.53;;;4.10;97.10
65997;BME280;52765;52.258;21.052;2023-12-22T02:42:58;96923.66;;;4.11;96.70
65997;BME280;52765;52.258;21.052;2023-12-22T02:45:25;96925.53;;;4.11;96.98
65997;BME280;52765;52.258;21.052;2023-12-22T02:47:51;96929.00;;;4.11;97.02
65997;BME280;52765;52.258;21.052;2023-12-22T02:50:22;96920.41;;;4.09;97.09
65997;BME280;52765;52.258;21.052;2023-12-22T02:52:47;96948.28;;;4.13;97.15
65997;BME280;52765;52.258;21.052;2023-12-22T02:55:12;96934.13;;;4.13;97.01
65997;BME280;52765;52.258;21.052;2023-12-22T02:57:38;96910.56;;;4.10;96.67
65997;BME280;52765;52.258;21.052;2023-12-22T03:00:03;96928.59;;;4.14;97.16
65997;BME280;52765;52.258;21.052;2023-12-22T03:02:28;96921.22;;;4.10;96.72
65997;BME280;52765;52.258;21.052;2023-12-22T03:04:54;96931.88;;;4.10;96.47
65997;BME280;52765;52.258;21.052;2023-12-22T03:07:19;96936.19;;;4.11;95.72
65997;BME280;52765;52.258;21.052;2023-12-22T03:09:45;96938.03;;;4.10;95.99
65997;BME280;52765;52.258;21.052;2023-12-22T03:12:10;96906.06;;;4.10;96.14
65997;BME280;52765;52.258;21.052;2023-12-22T03:14:36;96931.88;;;4.10;96.80
65997;BME280;52765;52.258;21.052;2023-12-22T03:17:02;96949.47;;;4.04;99.06
65997;BME280;52765;52.258;21.052;2023-12-22T03:19:27;96939.00;;;3.96;100.00
65997;BME280;52765;52.258;21.052;2023-12-22T03:21:52;96932.41;;;3.85;100.00
65997;BME280;52765;52.258;21.052;2023-12-22T03:24:18;96944.84;;;3.78;100.00
65997;BME280;52765;52.258;21.052;2023-12-22T03:26:44;96921.03;;;3.69;100.00
65997;BME280;52765;52.258;21.052;2023-12-22T03:29:10;96960.69;;;3.58;100.00
65997;BME280;52765;52.258;21.052;2023-12-22T03:31:35;96920.78;;;3.58;100.00
65997;BME280;52765;52.258;21.052;2023-12-22T03:34:00;96922.63;;;3.57;100.00
65997;BME280;52765;52.258;21.052;2023-12-22T03:36:26;96924.91;;;3.60;100.00
65997;BME280;52765;52.258;21.052;2023-12-22T03:38:58;96920.78;;;3.58;100.00
65997;BME280;52765;52.258;21.052;2023-12-22T03:41:27;96932.84;;;3.54;100.00
65997;BME280;52765;52.258;21.052;2023-12-22T03:43:54;96941.25;;;3.57;100.00
65997;BME280;52765;52.258;21.052;2023-12-22T03:46:19;96928.75;;;3.58;100.00
65997;BME280;52765;52.258;21.052;2023-12-22T03:48:44;96926.47;;;3.55;100.00
65997;BME280;52765;52.258;21.052;2023-12-22T03:51:10;96949.44;;;3.56;100.00
65997;BME280;52765;52.258;21.052;2023-12-22T03:53:37;96933.03;;;3.52;100.00
65997;BME280;52765;52.258;21.052;2023-12-22T03:56:02;96940.59;;;3.48;100.00
65997;BME280;52765;52.258;21.052;2023-12-22T03:58:30;96935.50;;;3.54;100.00
65997;BME280;52765;52.258;21.052;2023-12-22T04:00:56;96934.03;;;3.51;100.00
65997;BME280;52765;52.258;21.052;2023-12-22T04:03:21;96936.66;;;3.44;100.00
65997;BME280;52765;52.258;21.052;2023-12-22T04:05:47;96957.81;;;3.52;100.00
65997;BME280;52765;52.258;21.052;2023-12-22T04:08:12;96943.63;;;3.45;100.00
65997;BME280;52765;52.258;21.052;2023-12-22T04:10:37;96936.44;;;3.39;100.00
65997;BME280;52765;52.258;21.052;2023-12-22T04:13:03;96951.63;;;3.45;100.00
65997;BME280;52765;52.258;21.052;2023-12-22T04:15:28;96947.50;;;3.43;100.00
65997;BME280;52765;52.258;21.052;2023-12-22T04:17:53;96935.03;;;3.43;100.00
65997;BME280;52765;52.258;21.052;2023-12-22T04:20:19;96947.47;;;3.36;100.00
65997;BME280;52765;52.258;21.052;2023-12-22T04:22:47;96938.47;;;3.37;100.00
65997;BME280;52765;52.258;21.052;2023-12-22T04:25:12;96941.38;;;3.42;100.00
65997;BME280;52765;52.258;21.052;2023-12-22T04:27:38;96947.31;;;3.44;100.00
65997;BME280;52765;52.258;21.052;2023-12-22T04:30:03;96951.63;;;3.45;100.00
65997;BME280;52765;52.258;21.052;2023-12-22T04:32:28;96935.28;;;3.48;100.00
65997;BME280;52765;52.258;21.052;2023-12-22T04:34:54;96945.72;;;3.50;100.00
65997;BME280;52765;52.258;21.052;2023-12-22T04:37:19;96944.50;;;3.52;100.00
65997;BME280;52765;52.258;21.052;2023-12-22T04:39:44;96942.69;;;3.53;100.00
65997;BME280;52765;52.258;21.052;2023-12-22T04:42:10;96944.31;;;3.54;100.00
65997;BME280;52765;52.258;21.052;2023-12-22T04:44:35;96936.03;;;3.42;100.00
65997;BME280;52765;52.258;21.052;2023-12-22T04:47:00;96925.97;;;3.38;100.00
65997;BME280;52765;52.258;21.052;2023-12-22T04:49:26;96931.09;;;3.39;100.00
65997;BME280;52765;52.258;21.052;2023-12-22T04:51:51;96946.66;;;3.36;100.00
65997;BME280;52765;52.258;21.052;2023-12-22T04:54:18;96963.22;;;3.38;100.00
65997;BME280;52765;52.258;21.052;2023-12-22T04:56:47;96949.69;;;3.32;100.00
65997;BME280;52765;52.258;21.052;2023-12-22T04:59:13;96980.81;;;3.32;100.00
65997;BME280;52765;52.258;21.052;2023-12-22T05:01:38;96928.75;;;3.23;100.00
65997;BME280;52765;52.258;21.052;2023-12-22T05:04:03;96951.00;;;3.15;100.00
65997;BME280;52765;52.258;21.052;2023-12-22T05:06:29;96949.97;;;3.16;100.00
65997;BME280;52765;52.258;21.052;2023-12-22T05:08:54;96959.75;;;3.09;100.00
65997;BME280;52765;52.258;21.052;2023-12-22T05:11:19;96952.16;;;3.06;100.00
65997;BME280;52765;52.258;21.052;2023-12-22T05:13:45;96973.44;;;3.06;100.00
65997;BME280;52765;52.258;21.052;2023-12-22T05:16:10;96954.44;;;3.09;100.00
65997;BME280;52765;52.258;21.052;2023-12-22T05:18:36;96982.94;;;3.15;100.00
65997;BME280;52765;52.258;21.052;2023-12-22T05:21:01;96973.91;;;3.16;100.00
65997;BME280;52765;52.258;21.052;2023-12-22T05:23:26;96969.44;;;3.17;100.00
65997;BME280;52765;52.258;21.052;2023-12-22T05:25:52;96979.47;;;3.21;100.00
65997;BME280;52765;52.258;21.052;2023-12-22T05:28:20;96986.84;;;3.19;100.00
65997;BME280;52765;52.258;21.052;2023-12-22T05:30:45;96992.53;;;3.16;100.00
65997;BME280;52765;52.258;21.052;2023-12-22T05:33:11;96990.53;;;3.18;100.00
65997;BME280;52765;52.258;21.052;2023-12-22T05:35:37;96980.13;;;3.23;100.00
65997;BME280;52765;52.258;21.052;2023-12-22T05:38:02;96995.06;;;3.24;100.00
65997;BME280;52765;52.258;21.052;2023-12-22T05:40:27;97014.06;;;3.21;100.00
65997;BME280;52765;52.258;21.052;2023-12-22T05:42:53;97003.13;;;3.09;100.00
65997;BME280;52765;52.258;21.052;2023-12-22T05:45:18;96985.97;;;3.12;100.00
65997;BME280;52765;52.258;21.052;2023-12-22T05:47:43;97002.53;;;3.14;100.00
65997;BME280;52765;52.258;21.052;2023-12-22T05:50:09;97010.09;;;3.10;100.00
65997;BME280;52765;52.258;21.052;2023-12-22T05:52:35;97000.06;;;3.12;100.00
65997;BME280;52765;52.258;21.052;2023-12-22T05:55:01;97011.09;;;3.09;100.00
65997;BME280;52765;52.258;21.052;2023-12-22T05:57:26;97013.31;;;3.06;100.00
65997;BME280;52765;52.258;21.052;2023-12-22T05:59:51;97019.13;;;2.94;100.00
65997;BME280;52765;52.258;21.052;2023-12-22T06:02:17;97025.03;;;2.90;100.00
65997;BME280;52765;52.258;21.052;2023-12-22T06:04:42;97028.72;;;2.89;100.00
65997;BME280;52765;52.258;21.052;2023-12-22T06:07:09;97025.84;;;2.90;100.00
65997;BME280;52765;52.258;21.052;2023-12-22T06:09:34;97020.34;;;2.92;100.00
65997;BME280;52765;52.258;21.052;2023-12-22T06:11:59;97012.06;;;3.02;100.00
65997;BME280;52765;52.258;21.052;2023-12-22T06:14:26;97022.75;;;3.08;100.00
65997;BME280;52765;52.258;21.052;2023-12-22T06:16:53;97020.53;;;3.12;100.00
65997;BME280;52765;52.258;21.052;2023-12-22T06:19:21;97018.06;;;3.10;99.15
65997;BME280;52765;52.258;21.052;2023-12-22T06:21:49;97018.44;;;3.07;97.51
65997;BME280;52765;52.258;21.052;2023-12-22T06:24:14;97010.09;;;3.10;97.71
65997;BME280;52765;52.258;21.052;2023-12-22T06:26:39;97018.31;;;3.15;95.36
65997;BME280;52765;52.258;21.052;2023-12-22T06:29:05;97024.63;;;3.14;94.33
65997;BME280;52765;52.258;21.052;2023-12-22T06:31:30;97041.44;;;3.15;93.41
65997;BME280;52765;52.258;21.052;2023-12-22T06:33:56;97035.53;;;3.20;92.25
65997;BME280;52765;52.258;21.052;2023-12-22T06:36:26;97033.75;;;3.27;92.11
65997;BME280;52765;52.258;21.052;2023-12-22T06:38:52;97039.72;;;3.29;90.11
65997;BME280;52765;52.258;21.052;2023-12-22T06:41:24;97034.81;;;3.32;88.52
65997;BME280;52765;52.258;21.052;2023-12-22T06:43:50;97042.25;;;3.37;87.52
65997;BME280;52765;52.258;21.052;2023-12-22T06:46:19;97040.56;;;3.36;87.15
65997;BME280;52765;52.258;21.052;2023-12-22T06:48:45;97046.09;;;3.34;83.36
65997;BME280;52765;52.258;21.052;2023-12-22T06:53:42;97033.03;;;3.40;81.18
65997;BME280;52765;52.258;21.052;2023-12-22T06:56:20;97038.81;;;3.43;79.66
65997;BME280;52765;52.258;21.052;2023-12-22T06:58:49;97054.13;;;3.41;75.95
65997;BME280;52765;52.258;21.052;2023-12-22T07:01:18;97046.59;;;3.45;73.75
65997;BME280;52765;52.258;21.052;2023-12-22T07:03:45;97045.19;;;3.49;70.11
65997;BME280;52765;52.258;21.052;2023-12-22T07:06:10;97040.69;;;3.49;68.44
65997;BME280;52765;52.258;21.052;2023-12-22T07:08:35;97063.00;;;3.48;66.72
65997;BME280;52765;52.258;21.052;2023-12-22T07:11:01;97054.38;;;3.46;64.93
65997;BME280;52765;52.258;21.052;2023-12-22T07:13:27;97072.00;;;3.47;64.29
65997;BME280;52765;52.258;21.052;2023-12-22T07:15:52;97063.63;;;3.50;65.35
65997;BME280;52765;52.258;21.052;2023-12-22T07:18:18;97062.81;;;3.50;66.03
65997;BME280;52765;52.258;21.052;2023-12-22T07:20:43;97080.34;;;3.44;67.20
65997;BME280;52765;52.258;21.052;2023-12-22T07:23:09;97053.88;;;3.36;67.75
65997;BME280;52765;52.258;21.052;2023-12-22T07:25:36;97073.72;;;3.33;69.26
65997;BME280;52765;52.258;21.052;2023-12-22T07:28:03;97107.28;;;3.34;69.94
65997;BME280;52765;52.258;21.052;2023-12-22T07:30:29;97092.72;;;3.30;70.90
65997;BME280;52765;52.258;21.052;2023-12-22T07:32:54;97104.56;;;3.28;71.53
65997;BME280;52765;52.258;21.052;2023-12-22T07:35:19;97106.78;;;3.24;72.31
65997;BME280;52765;52.258;21.052;2023-12-22T07:37:45;97113.19;;;3.30;70.65
65997;BME280;52765;52.258;21.052;2023-12-22T07:40:10;97109.81;;;3.21;69.81
65997;BME280;52765;52.258;21.052;2023-12-22T07:42:36;97101.03;;;3.21;69.12
65997;BME280;52765;52.258;21.052;2023-12-22T07:45:02;97100.66;;;3.24;69.38
65997;BME280;52765;52.258;21.052;2023-12-22T07:47:28;97115.53;;;3.18;67.75
65997;BME280;52765;52.258;21.052;2023-12-22T07:49:53;97114.06;;;3.15;67.81
65997;BME280;52765;52.258;21.052;2023-12-22T07:52:18;97117.09;;;3.12;68.65
65997;BME280;52765;52.258;21.052;2023-12-22T07:54:44;97132.44;;;3.10;67.67
65997;BME280;52765;52.258;21.052;2023-12-22T07:57:09;97120.69;;;3.05;68.13
65997;BME280;52765;52.258;21.052;2023-12-22T07:59:35;97124.19;;;3.05;68.86
65997;BME280;52765;52.258;21.052;2023-12-22T08:02:00;97127.66;;;3.06;69.76
65997;BME280;52765;52.258;21.052;2023-12-22T08:04:25;97125.56;;;3.01;69.44
65997;BME280;52765;52.258;21.052;2023-12-22T08:06:51;97112.72;;;3.05;67.80
65997;BME280;52765;52.258;21.052;2023-12-22T08:09:17;97130.06;;;3.01;68.28
65997;BME280;52765;52.258;21.052;2023-12-22T08:11:42;97127.53;;;2.92;68.81
65997;BME280;52765;52.258;21.052;2023-12-22T08:14:11;97131.34;;;3.05;67.43
65997;BME280;52765;52.258;21.052;2023-12-22T08:16:36;97130.22;;;3.14;67.71
65997;BME280;52765;52.258;21.052;2023-12-22T08:19:02;97141.59;;;3.08;67.23
65997;BME280;52765;52.258;21.052;2023-12-22T08:21:27;97151.88;;;3.11;66.49
65997;BME280;52765;52.258;21.052;2023-12-22T08:23:52;97180.94;;;3.12;67.00
65997;BME280;52765;52.258;21.052;2023-12-22T08:26:18;97161.75;;;3.17;67.64
65997;BME280;52765;52.258;21.052;2023-12-22T08:28:44;97155.03;;;3.21;67.61
65997;BME280;52765;52.258;21.052;2023-12-22T08:31:09;97162.22;;;3.21;68.65
65997;BME280;52765;52.258;21.052;2023-12-22T08:33:35;97177.91;;;3.15;70.14
65997;BME280;52765;52.258;21.052;2023-12-22T08:36:00;97175.00;;;3.10;73.52
65997;BME280;52765;52.258;21.052;2023-12-22T08:38:25;97177.72;;;3.17;74.72
65997;BME280;52765;52.258;21.052;2023-12-22T08:40:51;97179.56;;;3.17;76.70
65997;BME280;52765;52.258;21.052;2023-12-22T08:43:17;97188.22;;;3.04;78.55
65997;BME280;52765;52.258;21.052;2023-12-22T08:45:42;97178.03;;;3.07;79.91
65997;BME280;52765;52.258;21.052;2023-12-22T08:48:07;97176.06;;;3.16;80.30
65997;BME280;52765;52.258;21.052;2023-12-22T08:50:34;97183.16;;;3.09;80.49
65997;BME280;52765;52.258;21.052;2023-12-22T08:52:59;97181.69;;;3.06;82.11
65997;BME280;52765;52.258;21.052;2023-12-22T08:55:24;97185.72;;;3.02;82.31
65997;BME280;52765;52.258;21.052;2023-12-22T08:57:50;97186.66;;;2.94;82.92
65997;BME280;52765;52.258;21.052;2023-12-22T09:00:15;97161.72;;;2.95;83.39
65997;BME280;52765;52.258;21.052;2023-12-22T09:02:41;97164.81;;;2.99;83.58
65997;BME280;52765;52.258;21.052;2023-12-22T09:05:06;97166.75;;;3.05;84.03
65997;BME280;52765;52.258;21.052;2023-12-22T09:07:32;97166.50;;;3.00;83.13
65997;BME280;52765;52.258;21.052;2023-12-22T09:09:57;97158.13;;;3.03;83.44
65997;BME280;52765;52.258;21.052;2023-12-22T09:12:23;97143.19;;;3.02;83.05
65997;BME280;52765;52.258;21.052;2023-12-22T09:14:49;97145.84;;;3.02;84.13
65997;BME280;52765;52.258;21.052;2023-12-22T09:17:14;97146.47;;;3.04;83.99
65997;BME280;52765;52.258;21.052;2023-12-22T09:19:41;97148.94;;;3.06;82.15
65997;BME280;52765;52.258;21.052;2023-12-22T09:22:08;97142.63;;;3.07;83.54
65997;BME280;52765;52.258;21.052;2023-12-22T09:24:33;97142.88;;;3.12;82.27
65997;BME280;52765;52.258;21.052;2023-12-22T09:26:58;97150.22;;;3.10;82.05
65997;BME280;52765;52.258;21.052;2023-12-22T09:29:28;97147.31;;;3.26;81.91
65997;BME280;52765;52.258;21.052;2023-12-22T09:31:53;97157.22;;;3.32;80.61
65997;BME280;52765;52.258;21.052;2023-12-22T09:34:19;97139.94;;;3.22;78.40
65997;BME280;52765;52.258;21.052;2023-12-22T09:36:44;97131.16;;;3.28;79.86
65997;BME280;52765;52.258;21.052;2023-12-22T09:39:09;97129.16;;;3.30;78.14
65997;BME280;52765;52.258;21.052;2023-12-22T09:41:35;97108.38;;;3.40;77.27
65997;BME280;52765;52.258;21.052;2023-12-22T09:44:00;97112.09;;;3.46;76.00
65997;BME280;52765;52.258;21.052;2023-12-22T09:46:28;97096.44;;;3.58;75.58
65997;BME280;52765;52.258;21.052;2023-12-22T09:48:54;97096.34;;;3.73;74.10
65997;BME280;52765;52.258;21.052;2023-12-22T09:51:20;97114.81;;;3.74;72.74
65997;BME280;52765;52.258;21.052;2023-12-22T09:53:46;97120.38;;;3.79;71.98
65997;BME280;52765;52.258;21.052;2023-12-22T09:56:12;97129.19;;;3.80;71.51
65997;BME280;52765;52.258;21.052;2023-12-22T09:58:40;97093.13;;;3.77;70.57
65997;BME280;52765;52.258;21.052;2023-12-22T10:01:05;97098.94;;;3.87;71.95
65997;BME280;52765;52.258;21.052;2023-12-22T10:03:32;97104.59;;;3.78;71.65
65997;BME280;52765;52.258;21.052;2023-12-22T10:05:58;97087.75;;;3.70;73.53
65997;BME280;52765;52.258;21.052;2023-12-22T10:08:24;97090.88;;;3.52;74.98
65997;BME280;52765;52.258;21.052;2023-12-22T10:10:50;97076.25;;;3.42;76.17
65997;BME280;52765;52.258;21.052;2023-12-22T10:13:17;97081.78;;;3.40;76.62
65997;BME280;52765;52.258;21.052;2023-12-22T10:15:43;97117.44;;;3.24;86.63
65997;BME280;52765;52.258;21.052;2023-12-22T10:18:09;97146.25;;;2.69;98.61
65997;BME280;52765;52.258;21.052;2023-12-22T10:20:34;97131.31;;;1.79;100.00
65997;BME280;52765;52.258;21.052;2023-12-22T10:23:00;97120.03;;;1.16;100.00
65997;BME280;52765;52.258;21.052;2023-12-22T10:25:28;97131.94;;;1.20;100.00
65997;BME280;52765;52.258;21.052;2023-12-22T10:27:57;97132.81;;;1.12;100.00
65997;BME280;52765;52.258;21.052;2023-12-22T10:30:22;97162.69;;;1.06;100.00
65997;BME280;52765;52.258;21.052;2023-12-22T10:32:52;97180.63;;;0.96;100.00
65997;BME280;52765;52.258;21.052;2023-12-22T10:35:17;97193.28;;;0.85;100.00
65997;BME280;52765;52.258;21.052;2023-12-22T10:37:45;97190.03;;;0.67;100.00
65997;BME280;52765;52.258;21.052;2023-12-22T10:40:10;97170.84;;;0.57;100.00
65997;BME280;52765;52.258;21.052;2023-12-22T10:42:36;97176.19;;;0.48;100.00
65997;BME280;52765;52.258;21.052;2023-12-22T10:45:01;97170.72;;;0.42;100.00
65997;BME280;52765;52.258;21.052;2023-12-22T10:47:27;97180.69;;;0.40;100.00
65997;BME280;52765;52.258;21.052;2023-12-22T10:49:53;97177.53;;;0.36;100.00
65997;BME280;52765;52.258;21.052;2023-12-22T10:52:18;97173.94;;;0.29;100.00
65997;BME280;52765;52.258;21.052;2023-12-22T10:54:47;97173.44;;;0.33;100.00
65997;BME280;52765;52.258;21.052;2023-12-22T10:57:16;97142.94;;;0.38;100.00
65997;BME280;52765;52.258;21.052;2023-12-22T10:59:45;97133.03;;;0.31;100.00
65997;BME280;52765;52.258;21.052;2023-12-22T11:02:17;97137.97;;;0.43;100.00
65997;BME280;52765;52.258;21.052;2023-12-22T11:04:46;97103.19;;;0.46;100.00
65997;BME280;52765;52.258;21.052;2023-12-22T11:07:12;97119.97;;;0.69;100.00
65997;BME280;52765;52.258;21.052;2023-12-22T11:09:39;97116.59;;;0.84;100.00
65997;BME280;52765;52.258;21.052;2023-12-22T11:12:06;97122.97;;;0.98;100.00
65997;BME280;52765;52.258;21.052;2023-12-22T11:14:32;97105.97;;;1.15;100.00
65997;BME280;52765;52.258;21.052;2023-12-22T11:16:57;97084.06;;;1.13;100.00
65997;BME280;52765;52.258;21.052;2023-12-22T11:19:24;97081.31;;;1.29;100.00
65997;BME280;52765;52.258;21.052;2023-12-22T11:21:52;97075.00;;;1.31;100.00
65997;BME280;52765;52.258;21.052;2023-12-22T11:24:18;97068.09;;;1.44;100.00
65997;BME280;52765;52.258;21.052;2023-12-22T11:26:44;97082.09;;;1.53;100.00
65997;BME280;52765;52.258;21.052;2023-12-22T11:29:10;97077.09;;;1.58;100.00
65997;BME280;52765;52.258;21.052;2023-12-22T11:31:36;97081.63;;;1.50;100.00
65997;BME280;52765;52.258;21.052;2023-12-22T11:34:02;97080.69;;;1.65;100.00
65997;BME280;52765;52.258;21.052;2023-12-22T11:36:29;97077.31;;;1.72;100.00
65997;BME280;52765;52.258;21.052;2023-12-22T11:38:56;97072.34;;;1.69;100.00
65997;BME280;52765;52.258;21.052;2023-12-22T11:41:24;97076.72;;;1.61;100.00
65997;BME280;52765;52.258;21.052;2023-12-22T11:43:50;97074.00;;;1.70;100.00
65997;BME280;52765;52.258;21.052;2023-12-22T11:46:17;97069.72;;;1.83;100.00
65997;BME280;52765;52.258;21.052;2023-12-22T11:48:46;97081.78;;;1.71;100.00
65997;BME280;52765;52.258;21.052;2023-12-22T11:51:15;97086.53;;;1.76;100.00
65997;BME280;52765;52.258;21.052;2023-12-22T11:53:43;97080.59;;;1.74;100.00
65997;BME280;52765;52.258;21.052;2023-12-22T11:56:09;97087.25;;;1.70;100.00
65997;BME280;52765;52.258;21.052;2023-12-22T11:58:41;97076.00;;;1.67;100.00
65997;BME280;52765;52.258;21.052;2023-12-22T12:01:09;97065.75;;;1.64;100.00
65997;BME280;52765;52.258;21.052;2023-12-22T12:03:40;97077.09;;;1.73;100.00
65997;BME280;52765;52.258;21.052;2023-12-22T12:08:37;97055.50;;;1.76;100.00
65997;BME280;52765;52.258;21.052;2023-12-22T12:11:02;97060.28;;;1.81;100.00
65997;BME280;52765;52.258;21.052;2023-12-22T12:13:28;97052.13;;;1.82;100.00
65997;BME280;52765;52.258;21.052;2023-12-22T12:15:58;97050.47;;;1.96;100.00
65997;BME280;52765;52.258;21.052;2023-12-22T12:18:28;97050.75;;;2.01;100.00
65997;BME280;52765;52.258;21.052;2023-12-22T12:20:54;97055.72;;;2.04;100.00
65997;BME280;52765;52.258;21.052;2023-12-22T12:23:19;97057.91;;;2.01;100.00
65997;BME280;52765;52.258;21.052;2023-12-22T12:25:45;97040.63;;;2.05;100.00
65997;BME280;52765;52.258;21.052;2023-12-22T12:28:13;97057.00;;;2.09;100.00
65997;BME280;52765;52.258;21.052;2023-12-22T12:30:39;97048.00;;;2.10;100.00
65997;BME280;52765;52.258;21.052;2023-12-22T12:33:12;97043.72;;;2.09;100.00
65997;BME280;52765;52.258;21.052;2023-12-22T12:35:41;97043.09;;;2.07;100.00
65997;BME280;52765;52.258;21.052;2023-12-22T12:38:12;97042.53;;;1.96;100.00
65997;BME280;52765;52.258;21.052;2023-12-22T12:40:44;97046.38;;;1.94;100.00
65997;BME280;52765;52.258;21.052;2023-12-22T12:43:10;97046.56;;;1.92;100.00
65997;BME280;52765;52.258;21.052;2023-12-22T12:45:36;97033.75;;;1.96;100.00
65997;BME280;52765;52.258;21.052;2023-12-22T12:48:02;97031.34;;;2.01;100.00
65997;BME280;52765;52.258;21.052;2023-12-22T12:50:28;97027.81;;;1.94;100.00
65997;BME280;52765;52.258;21.052;2023-12-22T12:52:54;97032.66;;;1.90;100.00
65997;BME280;52765;52.258;21.052;2023-12-22T12:55:21;97036.56;;;1.94;100.00